createdAt,value
2018-07-14T00:00:13.304Z,4.70
2018-07-14T00:02:41.589Z,5.13
2018-07-14T00:05:09.837Z,4.80
2018-07-14T00:07:38.081Z,4.90
2018-07-14T00:10:06.495Z,5.50
2018-07-14T00:12:34.656Z,4.50
2018-07-14T00:15:02.886Z,5.00
2018-07-14T00:17:31.112Z,5.03
2018-07-14T00:19:59.428Z,4.90
2018-07-14T00:22:27.644Z,4.93
2018-07-14T00:24:55.889Z,5.10
2018-07-14T00:27:24.173Z,5.23
2018-07-14T00:29:52.401Z,5.33
2018-07-14T00:32:20.375Z,5.60
2018-07-14T00:34:48.608Z,5.30
2018-07-14T00:37:17.103Z,5.10
2018-07-14T00:39:45.334Z,5.47
2018-07-14T00:42:13.604Z,5.30
2018-07-14T00:44:41.834Z,5.20
2018-07-14T00:47:10.045Z,5.17
2018-07-14T00:49:38.296Z,5.20
2018-07-14T00:52:06.533Z,5.20
2018-07-14T00:54:34.755Z,4.93
2018-07-14T00:57:02.982Z,4.90
2018-07-14T00:59:31.212Z,5.73
2018-07-14T01:01:59.425Z,5.83
2018-07-14T01:04:27.640Z,5.30
2018-07-14T01:06:55.873Z,5.40
2018-07-14T01:09:24.101Z,5.53
2018-07-14T01:11:52.372Z,5.40
2018-07-14T01:14:20.336Z,5.23
2018-07-14T01:16:48.572Z,5.33
2018-07-14T01:19:16.812Z,5.27
2018-07-14T01:21:45.053Z,5.27
2018-07-14T01:24:13.336Z,5.60
2018-07-14T01:26:44.106Z,5.80
2018-07-14T01:29:13.296Z,5.50
2018-07-14T01:31:41.784Z,5.20
2018-07-14T01:34:10.004Z,5.50
2018-07-14T01:36:38.246Z,5.13
2018-07-14T01:39:07.097Z,5.53
2018-07-14T01:41:35.332Z,5.40
2018-07-14T01:44:03.567Z,5.17
2018-07-14T01:46:31.780Z,5.00
2018-07-14T01:49:00.069Z,5.73
2018-07-14T01:51:28.304Z,5.87
2018-07-14T01:53:56.551Z,5.57
2018-07-14T01:56:24.762Z,5.53
2018-07-14T01:58:52.992Z,5.50
2018-07-14T02:01:21.232Z,5.63
2018-07-14T02:03:49.477Z,5.67
2018-07-14T02:06:17.760Z,5.53
2018-07-14T02:08:45.996Z,5.43
2018-07-14T02:11:13.990Z,5.40
2018-07-14T02:13:42.229Z,5.83
2018-07-14T02:16:10.536Z,5.80
2018-07-14T02:18:38.800Z,6.23
2018-07-14T02:21:07.253Z,5.90
2018-07-14T02:23:35.486Z,5.47
2018-07-14T02:26:03.749Z,5.33
2018-07-14T02:28:31.716Z,5.97
2018-07-14T02:30:59.974Z,5.80
2018-07-14T02:33:28.199Z,5.40
2018-07-14T02:35:56.433Z,5.23
2018-07-14T02:38:24.672Z,5.53
2018-07-14T02:40:52.956Z,5.43
2018-07-14T02:43:21.241Z,5.30
2018-07-14T02:45:49.484Z,5.70
2018-07-14T02:48:17.705Z,5.80
2018-07-14T02:50:46.192Z,6.20
2018-07-14T02:53:14.440Z,5.70
2018-07-14T02:55:42.684Z,5.97
2018-07-14T02:58:10.893Z,5.70
2018-07-14T03:00:39.113Z,5.80
2018-07-14T03:03:07.353Z,5.30
2018-07-14T03:05:35.622Z,5.83
2018-07-14T03:08:03.832Z,5.80
2018-07-14T03:10:32.048Z,5.47
2018-07-14T03:13:00.341Z,5.77
2018-07-14T03:15:28.521Z,5.70
2018-07-14T03:17:56.537Z,5.70
2018-07-14T03:20:24.760Z,5.77
2018-07-14T03:22:52.969Z,5.80
2018-07-14T03:25:21.200Z,5.90
2018-07-14T03:27:49.412Z,5.50
2018-07-14T03:30:17.686Z,5.93
2018-07-14T03:32:45.893Z,6.03
2018-07-14T03:35:14.113Z,5.50
2018-07-14T03:37:42.348Z,6.47
2018-07-14T03:40:10.600Z,5.67
2018-07-14T03:42:38.869Z,5.67
2018-07-14T03:45:07.325Z,5.87
2018-07-14T03:47:35.941Z,5.87
2018-07-14T03:50:04.660Z,6.10
2018-07-14T03:52:32.904Z,5.83
2018-07-14T03:55:01.160Z,5.70
2018-07-14T03:57:29.424Z,5.70
2018-07-14T03:59:57.658Z,5.63
2018-07-14T04:02:25.876Z,6.77
2018-07-14T04:04:54.112Z,6.10
2018-07-14T04:07:22.377Z,6.47
2018-07-14T04:09:50.580Z,5.70
2018-07-14T04:12:18.810Z,5.80
2018-07-14T04:14:47.047Z,5.70
2018-07-14T04:17:15.280Z,5.87
2018-07-14T04:19:43.539Z,6.27
2018-07-14T04:22:11.760Z,7.10
2018-07-14T04:24:39.965Z,6.23
2018-07-14T04:27:08.201Z,6.60
2018-07-14T04:29:36.469Z,6.47
2018-07-14T04:32:04.793Z,6.00
2018-07-14T04:34:32.978Z,6.30
2018-07-14T04:37:01.184Z,6.50
2018-07-14T04:39:29.408Z,6.00
2018-07-14T04:41:57.885Z,6.27
2018-07-14T04:44:26.112Z,6.40
2018-07-14T04:46:54.376Z,6.00
2018-07-14T04:49:22.615Z,6.47
2018-07-14T04:51:50.572Z,6.50
2018-07-14T04:54:18.816Z,7.10
2018-07-14T04:56:47.028Z,6.17
2018-07-14T04:59:15.256Z,6.70
2018-07-14T05:01:43.504Z,6.40
2018-07-14T05:04:11.764Z,6.53
2018-07-14T05:06:40.354Z,6.33
2018-07-14T05:09:08.572Z,6.47
2018-07-14T05:11:36.796Z,6.37
2018-07-14T05:14:05.021Z,6.47
2018-07-14T05:16:33.257Z,6.50
2018-07-14T05:19:01.702Z,7.80
2018-07-14T05:21:30.032Z,6.50
2018-07-14T05:23:58.168Z,6.60
2018-07-14T05:26:26.416Z,7.00
2018-07-14T05:28:54.378Z,7.23
2018-07-14T05:31:22.628Z,6.37
2018-07-14T05:33:50.845Z,6.50
2018-07-14T05:36:19.052Z,6.20
2018-07-14T05:38:47.273Z,6.17
2018-07-14T05:41:15.532Z,6.77
2018-07-14T05:43:43.752Z,6.70
2018-07-14T05:46:12.259Z,7.00
2018-07-14T05:48:40.476Z,6.60
2018-07-14T05:51:09.066Z,7.60
2018-07-14T05:53:37.485Z,7.37
2018-07-14T05:56:05.741Z,8.47
2018-07-14T05:58:33.955Z,7.10
2018-07-14T06:01:02.232Z,6.70
2018-07-14T06:03:30.456Z,6.77
2018-07-14T06:05:58.874Z,7.30
2018-07-14T06:08:27.124Z,6.77
2018-07-14T06:10:55.354Z,6.67
2018-07-14T06:13:23.580Z,6.67
2018-07-14T06:15:51.807Z,6.80
2018-07-14T06:18:20.120Z,6.90
2018-07-14T06:20:48.352Z,6.30
2018-07-14T06:23:16.771Z,6.47
2018-07-14T06:25:44.992Z,6.90
2018-07-14T06:28:13.240Z,7.07
2018-07-14T06:30:41.536Z,7.00
2018-07-14T06:33:09.782Z,6.67
2018-07-14T06:35:38.268Z,6.57
2018-07-14T06:38:06.309Z,6.03
2018-07-14T06:40:34.504Z,6.60
2018-07-14T06:43:02.784Z,6.53
2018-07-14T06:45:31.009Z,7.07
2018-07-14T06:47:59.237Z,5.70
2018-07-14T06:50:27.511Z,8.37
2018-07-14T06:52:55.908Z,6.07
2018-07-14T06:55:24.372Z,6.00
2018-07-14T06:57:52.760Z,8.07
2018-07-14T07:00:21.153Z,6.07
2018-07-14T07:02:49.388Z,6.20
2018-07-14T07:05:17.788Z,5.90
2018-07-14T07:07:46.064Z,6.70
2018-07-14T07:10:14.305Z,5.43
2018-07-14T07:12:42.512Z,5.93
2018-07-14T07:15:10.740Z,5.90
2018-07-14T07:17:38.968Z,5.97
2018-07-14T07:20:07.241Z,6.27
2018-07-14T07:22:35.476Z,5.80
2018-07-14T07:25:03.737Z,5.97
2018-07-14T07:27:31.964Z,5.93
2018-07-14T07:30:00.214Z,5.87
2018-07-14T07:32:28.468Z,6.10
2018-07-14T07:34:56.689Z,6.07
2018-07-14T07:37:24.911Z,6.10
2018-07-14T07:39:53.136Z,6.10
2018-07-14T07:42:21.446Z,5.90
2018-07-14T07:44:49.616Z,6.10
2018-07-14T07:47:17.824Z,6.20
2018-07-14T07:49:46.112Z,5.93
2018-07-14T07:52:14.325Z,6.07
2018-07-14T07:54:42.576Z,6.00
2018-07-14T07:57:10.804Z,5.60
2018-07-14T07:59:39.354Z,6.27
2018-07-14T08:02:07.933Z,6.10
2018-07-14T08:04:36.152Z,6.13
2018-07-14T08:07:04.928Z,5.77
2018-07-14T08:09:33.356Z,5.80
2018-07-14T08:12:01.589Z,6.00
2018-07-14T08:14:29.839Z,5.70
2018-07-14T08:16:58.101Z,6.10
2018-07-14T08:19:26.529Z,6.30
2018-07-14T08:21:54.789Z,6.20
2018-07-14T08:24:23.008Z,5.93
2018-07-14T08:26:51.552Z,6.00
2018-07-14T08:29:19.776Z,5.63
2018-07-14T08:31:48.005Z,5.60
2018-07-14T08:34:16.220Z,5.53
2018-07-14T08:36:44.449Z,5.90
2018-07-14T08:39:12.676Z,5.70
2018-07-14T08:41:40.888Z,5.53
2018-07-14T08:44:09.147Z,5.60
2018-07-14T08:46:37.361Z,5.37
2018-07-14T08:49:05.758Z,5.70
2018-07-14T08:51:33.994Z,5.60
2018-07-14T08:54:02.225Z,6.20
2018-07-14T08:56:30.198Z,5.50
2018-07-14T08:58:58.440Z,5.70
2018-07-14T09:01:26.725Z,6.03
2018-07-14T09:03:54.949Z,5.80
2018-07-14T09:06:23.164Z,5.27
2018-07-14T09:08:51.650Z,5.20
2018-07-14T09:11:19.878Z,5.70
2018-07-14T09:13:48.111Z,5.87
2018-07-14T09:16:16.320Z,5.80
2018-07-14T09:18:44.547Z,5.57
2018-07-14T09:21:12.824Z,5.80
2018-07-14T09:23:41.064Z,6.10
2018-07-14T09:26:09.465Z,5.60
2018-07-14T09:28:38.670Z,5.77
2018-07-14T09:31:06.908Z,5.93
2018-07-14T09:33:35.153Z,5.60
2018-07-14T09:36:03.408Z,5.63
2018-07-14T09:38:31.724Z,5.60
2018-07-14T09:40:59.944Z,5.33
2018-07-14T09:43:28.164Z,6.00
2018-07-14T09:45:56.416Z,5.50
2018-07-14T09:48:24.652Z,6.27
2018-07-14T09:50:52.887Z,5.30
2018-07-14T09:53:21.128Z,9.07
2018-07-14T09:55:49.364Z,5.90
2018-07-14T09:58:17.605Z,7.10
2018-07-14T10:00:51.218Z,5.63
2018-07-14T10:03:19.460Z,5.73
2018-07-14T10:05:47.750Z,5.40
2018-07-14T10:08:15.989Z,5.77
2018-07-14T10:10:44.228Z,5.10
2018-07-14T10:13:12.482Z,5.00
2018-07-14T10:15:40.716Z,5.20
2018-07-14T10:18:08.944Z,5.13
2018-07-14T10:20:36.912Z,6.70
2018-07-14T10:23:05.136Z,8.20
2018-07-14T10:25:33.426Z,6.40
2018-07-14T10:28:01.614Z,5.90
2018-07-14T10:30:29.889Z,7.63
2018-07-14T10:32:58.120Z,5.60
2018-07-14T10:35:26.341Z,5.50
2018-07-14T10:37:54.571Z,7.97
2018-07-14T10:40:22.859Z,5.40
2018-07-14T10:42:51.101Z,5.50
2018-07-14T10:45:19.476Z,4.63
2018-07-14T10:47:47.713Z,5.00
2018-07-14T10:50:15.929Z,4.80
2018-07-14T10:52:44.202Z,4.50
2018-07-14T10:55:12.491Z,4.73
2018-07-14T10:57:40.675Z,4.60
2018-07-14T11:00:09.445Z,4.77
2018-07-14T11:02:37.816Z,4.83
2018-07-14T11:05:06.302Z,4.97
2018-07-14T11:07:34.533Z,4.87
2018-07-14T11:10:02.958Z,4.87
2018-07-14T11:12:32.136Z,4.50
2018-07-14T11:15:00.369Z,4.43
2018-07-14T11:17:28.612Z,6.17
2018-07-14T11:19:57.008Z,4.67
2018-07-14T11:22:25.216Z,5.00
2018-07-14T11:24:53.477Z,4.50
2018-07-14T11:27:22.056Z,4.07
2018-07-14T11:29:50.349Z,4.90
2018-07-14T11:32:18.577Z,4.50
2018-07-14T11:34:46.793Z,4.80
2018-07-14T11:37:15.024Z,4.60
2018-07-14T11:39:43.240Z,4.23
2018-07-14T11:42:11.500Z,4.40
2018-07-14T11:44:39.736Z,4.27
2018-07-14T11:47:07.965Z,3.80
2018-07-14T11:49:36.232Z,3.63
2018-07-14T11:52:04.540Z,3.83
2018-07-14T11:54:32.788Z,12.20
2018-07-14T11:57:01.037Z,7.27
2018-07-14T11:59:29.464Z,5.20
2018-07-14T12:01:57.747Z,4.30
2018-07-14T12:04:25.933Z,4.20
2018-07-14T12:06:54.172Z,3.97
2018-07-14T12:09:22.407Z,4.50
2018-07-14T12:11:50.625Z,4.00
2018-07-14T12:14:18.856Z,3.97
2018-07-14T12:16:47.089Z,4.43
2018-07-14T12:19:15.337Z,4.00
2018-07-14T12:21:43.560Z,3.50
2018-07-14T12:24:11.559Z,4.07
2018-07-14T12:26:39.940Z,3.90
2018-07-14T12:29:08.165Z,3.30
2018-07-14T12:31:36.637Z,4.10
2018-07-14T12:34:04.892Z,3.70
2018-07-14T12:36:33.120Z,3.43
2018-07-14T12:39:01.349Z,3.50
2018-07-14T12:41:31.968Z,3.70
2018-07-14T12:44:00.392Z,3.70
2018-07-14T12:46:28.621Z,3.80
2018-07-14T12:48:56.864Z,3.20
2018-07-14T12:51:25.068Z,3.70
2018-07-14T12:53:53.541Z,3.50
2018-07-14T12:56:21.713Z,3.30
2018-07-14T12:58:50.243Z,3.47
2018-07-14T13:01:18.463Z,3.30
2018-07-14T13:03:46.820Z,3.57
2018-07-14T13:06:15.044Z,3.20
2018-07-14T13:08:43.291Z,3.20
2018-07-14T13:11:11.541Z,3.20
2018-07-14T13:13:39.769Z,2.97
2018-07-14T13:16:08.252Z,8.17
2018-07-14T13:18:36.473Z,4.10
2018-07-14T13:21:04.718Z,3.60
2018-07-14T13:23:33.005Z,3.63
2018-07-14T13:26:01.235Z,3.30
2018-07-14T13:28:29.456Z,3.23
2018-07-14T13:30:57.677Z,3.33
2018-07-14T13:33:25.909Z,3.43
2018-07-14T13:35:54.168Z,3.40
2018-07-14T13:38:22.391Z,3.57
2018-07-14T13:40:50.608Z,3.90
2018-07-14T13:43:18.840Z,3.00
2018-07-14T13:45:47.031Z,3.40
2018-07-14T13:48:15.252Z,4.60
2018-07-14T13:50:43.492Z,3.40
2018-07-14T13:53:11.716Z,3.20
2018-07-14T13:55:39.938Z,3.00
2018-07-14T13:58:08.172Z,2.93
2018-07-14T14:00:36.648Z,3.10
2018-07-14T14:03:04.924Z,3.60
2018-07-14T14:05:33.368Z,3.20
2018-07-14T14:08:01.580Z,3.10
2018-07-14T14:10:29.896Z,3.43
2018-07-14T14:12:58.124Z,3.20
2018-07-14T14:15:26.365Z,3.00
2018-07-14T14:17:54.604Z,3.50
2018-07-14T14:20:22.834Z,4.17
2018-07-14T14:22:51.076Z,3.53
2018-07-14T14:25:19.312Z,3.10
2018-07-14T14:27:47.545Z,4.00
2018-07-14T14:30:15.752Z,4.00
2018-07-14T14:32:43.977Z,3.20
2018-07-14T14:35:12.212Z,3.13
2018-07-14T14:37:40.448Z,3.70
2018-07-14T14:40:08.677Z,3.90
2018-07-14T14:42:37.056Z,3.90
2018-07-14T14:45:05.761Z,3.27
2018-07-14T14:47:34.028Z,3.83
2018-07-14T14:50:02.260Z,3.00
2018-07-14T14:52:30.224Z,2.80
2018-07-14T14:54:58.436Z,3.33
2018-07-14T14:57:26.693Z,2.80
2018-07-14T14:59:54.920Z,3.07
2018-07-14T15:02:23.140Z,3.30
2018-07-14T15:04:51.524Z,3.17
2018-07-14T15:07:19.768Z,3.10
2018-07-14T15:09:47.978Z,3.03
2018-07-14T15:12:16.260Z,3.20
2018-07-14T15:14:44.489Z,3.30
2018-07-14T15:17:12.710Z,3.50
2018-07-14T15:19:40.908Z,3.33
2018-07-14T15:22:09.153Z,3.20
2018-07-14T15:24:37.361Z,3.20
2018-07-14T15:27:05.584Z,3.27
2018-07-14T15:29:33.824Z,3.50
2018-07-14T15:32:02.045Z,3.73
2018-07-14T15:34:30.308Z,3.47
2018-07-14T15:36:58.528Z,3.63
2018-07-14T15:39:27.108Z,3.37
2018-07-14T15:41:55.340Z,3.60
2018-07-14T15:44:23.566Z,3.23
2018-07-14T15:46:51.997Z,3.20
2018-07-14T15:49:20.228Z,3.57
2018-07-14T15:51:48.436Z,3.83
2018-07-14T15:54:16.677Z,3.60
2018-07-14T15:56:44.884Z,3.20
2018-07-14T15:59:13.193Z,3.50
2018-07-14T16:01:41.413Z,3.57
2018-07-14T16:04:09.632Z,3.50
2018-07-14T16:06:37.856Z,3.10
2018-07-14T16:09:06.579Z,3.20
2018-07-14T16:11:34.824Z,3.70
2018-07-14T16:14:03.098Z,3.20
2018-07-14T16:16:31.314Z,3.13
2018-07-14T16:18:59.573Z,3.07
2018-07-14T16:21:27.748Z,3.23
2018-07-14T16:23:56.077Z,3.20
2018-07-14T16:26:24.280Z,3.20
2018-07-14T16:28:52.520Z,3.23
2018-07-14T16:31:20.729Z,3.20
2018-07-14T16:33:48.945Z,3.20
2018-07-14T16:36:17.396Z,3.20
2018-07-14T16:38:45.620Z,3.30
2018-07-14T16:41:13.852Z,3.20
2018-07-14T16:43:42.122Z,3.30
2018-07-14T16:46:10.337Z,3.27
2018-07-14T16:48:38.741Z,3.77
2018-07-14T16:51:07.190Z,3.27
2018-07-14T16:53:35.432Z,3.23
2018-07-14T16:56:03.645Z,3.20
2018-07-14T16:58:31.866Z,3.50
2018-07-14T17:01:00.129Z,3.47
2018-07-14T17:03:28.364Z,3.30
2018-07-14T17:05:56.580Z,3.10
2018-07-14T17:08:24.816Z,3.40
2018-07-14T17:10:53.049Z,3.63
2018-07-14T17:13:21.291Z,3.57
2018-07-14T17:15:49.664Z,3.60
2018-07-14T17:18:17.861Z,3.10
2018-07-14T17:20:46.154Z,3.43
2018-07-14T17:23:14.328Z,3.30
2018-07-14T17:25:42.609Z,3.30
2018-07-14T17:28:10.834Z,3.10
2018-07-14T17:30:39.058Z,3.33
2018-07-14T17:33:07.300Z,3.30
2018-07-14T17:35:35.642Z,3.33
2018-07-14T17:38:03.796Z,3.40
2018-07-14T17:40:32.017Z,3.40
2018-07-14T17:43:00.900Z,3.10
2018-07-14T17:45:29.120Z,3.43
2018-07-14T17:47:57.352Z,3.97
2018-07-14T17:50:25.585Z,4.60
2018-07-14T17:52:53.797Z,3.90
2018-07-14T17:55:22.012Z,4.20
2018-07-14T17:57:50.242Z,4.30
2018-07-14T18:00:18.784Z,3.00
2018-07-14T18:02:46.984Z,2.87
2018-07-14T18:05:15.234Z,3.70
2018-07-14T18:07:43.428Z,3.40
2018-07-14T18:10:11.676Z,3.47
2018-07-14T18:12:39.932Z,3.17
2018-07-14T18:15:08.173Z,3.60
2018-07-14T18:17:36.381Z,3.40
2018-07-14T18:20:04.816Z,3.50
2018-07-14T18:22:33.032Z,3.37
2018-07-14T18:25:01.285Z,3.77
2018-07-14T18:27:29.502Z,3.13
2018-07-14T18:29:57.729Z,5.80
2018-07-14T18:32:25.948Z,3.43
2018-07-14T18:34:54.172Z,3.30
2018-07-14T18:37:22.417Z,3.77
2018-07-14T18:39:50.648Z,3.30
2018-07-14T18:42:18.870Z,3.57
2018-07-14T18:44:47.072Z,3.50
2018-07-14T18:47:15.300Z,3.50
2018-07-14T18:49:43.634Z,3.43
2018-07-14T18:52:11.945Z,3.63
2018-07-14T18:54:40.079Z,3.50
2018-07-14T18:57:08.304Z,3.53
2018-07-14T18:59:36.524Z,3.33
2018-07-14T19:02:05.069Z,3.40
2018-07-14T19:04:33.272Z,3.30
2018-07-14T19:07:01.256Z,3.50
2018-07-14T19:09:29.502Z,3.23
2018-07-14T19:11:57.737Z,3.00
2018-07-14T19:14:25.961Z,3.20
2018-07-14T19:16:54.176Z,3.47
2018-07-14T19:19:22.384Z,3.30
2018-07-14T19:21:50.613Z,3.43
2018-07-14T19:24:18.892Z,3.93
2018-07-14T19:26:47.119Z,3.83
2018-07-14T19:29:15.312Z,3.83
2018-07-14T19:31:43.555Z,3.73
2018-07-14T19:34:11.765Z,3.60
2018-07-14T19:36:40.068Z,3.67
2018-07-14T19:39:08.424Z,3.40
2018-07-14T19:41:36.645Z,4.17
2018-07-14T19:44:04.904Z,3.87
2018-07-14T19:46:33.116Z,3.97
2018-07-14T19:49:01.570Z,3.90
2018-07-14T19:51:29.780Z,3.57
2018-07-14T19:53:58.080Z,3.70
2018-07-14T19:56:26.512Z,3.70
2018-07-14T19:58:54.755Z,4.47
2018-07-14T20:01:22.992Z,3.80
2018-07-14T20:03:51.208Z,4.33
2018-07-14T20:06:19.502Z,3.43
2018-07-14T20:08:47.660Z,3.73
2018-07-14T20:11:15.876Z,4.10
2018-07-14T20:13:44.108Z,3.70
2018-07-14T20:16:12.308Z,4.20
2018-07-14T20:18:40.556Z,3.77
2018-07-14T20:21:08.764Z,4.10
2018-07-14T20:23:37.102Z,4.43
2018-07-14T20:26:05.934Z,3.87
2018-07-14T20:28:34.168Z,4.20
2018-07-14T20:31:02.397Z,4.97
2018-07-14T20:33:30.600Z,4.40
2018-07-14T20:35:58.820Z,5.07
2018-07-14T20:38:27.112Z,4.40
2018-07-14T20:40:55.332Z,4.00
2018-07-14T20:43:23.545Z,4.50
2018-07-14T20:45:51.764Z,4.27
2018-07-14T20:48:20.248Z,4.53
2018-07-14T20:50:48.244Z,4.40
2018-07-14T20:53:16.448Z,4.27
2018-07-14T20:55:44.668Z,4.70
2018-07-14T20:58:12.881Z,5.43
2018-07-14T21:00:41.316Z,5.40
2018-07-14T21:03:09.537Z,5.33
2018-07-14T21:05:37.761Z,5.03
2018-07-14T21:08:06.060Z,4.70
2018-07-14T21:10:34.659Z,4.43
2018-07-14T21:13:02.889Z,4.53
2018-07-14T21:15:31.105Z,4.53
2018-07-14T21:17:59.320Z,4.07
2018-07-14T21:20:27.533Z,4.43
2018-07-14T21:22:55.775Z,4.10
2018-07-14T21:25:24.145Z,4.70
2018-07-14T21:27:52.597Z,4.40
2018-07-14T21:30:20.867Z,4.30
2018-07-14T21:32:49.339Z,4.47
2018-07-14T21:35:17.703Z,4.13
2018-07-14T21:37:46.183Z,4.30
2018-07-14T21:40:14.484Z,4.47
2018-07-14T21:42:42.660Z,5.43
2018-07-14T21:45:10.930Z,5.03
2018-07-14T21:47:39.146Z,4.37
2018-07-14T21:50:07.429Z,4.77
2018-07-14T21:52:35.669Z,4.70
2018-07-14T21:55:04.088Z,4.33
2018-07-14T21:57:32.289Z,4.37
2018-07-14T22:00:00.520Z,4.77
2018-07-14T22:02:28.780Z,4.70
2018-07-14T22:04:57.004Z,4.90
2018-07-14T22:07:25.283Z,4.70
2018-07-14T22:09:53.498Z,4.57
2018-07-14T22:12:21.706Z,4.73
2018-07-14T22:14:50.028Z,5.17
2018-07-14T22:17:18.225Z,4.93
2018-07-14T22:19:46.428Z,4.67
2018-07-14T22:22:14.644Z,5.23
2018-07-14T22:24:42.876Z,5.23
2018-07-14T22:27:11.804Z,5.40
2018-07-14T22:29:40.049Z,5.13
2018-07-14T22:32:08.273Z,4.93
2018-07-14T22:34:36.505Z,4.90
2018-07-14T22:37:04.740Z,4.83
2018-07-14T22:39:33.064Z,4.97
2018-07-14T22:42:01.297Z,5.00
2018-07-14T22:44:29.520Z,5.60
2018-07-14T22:46:57.760Z,5.00
2018-07-14T22:49:25.992Z,5.10
2018-07-14T22:51:54.236Z,5.30
2018-07-14T22:54:22.473Z,4.40
2018-07-14T22:56:50.701Z,4.90
2018-07-14T22:59:18.907Z,5.27
2018-07-14T23:01:47.153Z,5.20
2018-07-14T23:04:15.736Z,6.17
2018-07-14T23:06:43.964Z,5.03
2018-07-14T23:09:12.188Z,5.60
2018-07-14T23:11:40.416Z,4.57
2018-07-14T23:14:08.636Z,5.33
2018-07-14T23:16:36.898Z,5.60
2018-07-14T23:19:05.368Z,5.67
2018-07-14T23:21:33.589Z,5.77
2018-07-14T23:24:01.824Z,6.07
2018-07-14T23:26:30.076Z,6.40
2018-07-14T23:28:58.313Z,6.70
2018-07-14T23:31:26.570Z,7.37
2018-07-14T23:33:54.798Z,6.50
2018-07-14T23:36:23.020Z,6.57
2018-07-14T23:38:51.296Z,6.27
2018-07-14T23:41:19.300Z,5.90
2018-07-14T23:43:47.529Z,5.20
2018-07-14T23:46:15.748Z,5.80
2018-07-14T23:48:43.976Z,5.37
2018-07-14T23:51:12.209Z,6.00
2018-07-14T23:53:40.428Z,6.03
2018-07-14T23:56:08.699Z,5.70
2018-07-14T23:58:36.880Z,5.73
